Hauptseite
METAR-TAF:

METAR-TAF

Flughäfen :

Christchurch International Airport

Christchurch, Neuseeland

Breite: 43-29S, Länge: 172-33E, Höhe: 38 m

Beobachtung

Neuester Wetterbericht von vor 42 Minuten, um 18:00 UTC
Wind 7 kt aus West/Südwest, variierte zwischen Süd/Südwest und West/Nordwest
Temperatur 6°C
Luftfeuchtigkeit 81%
Luftdruck 1009 hPa
Sichtweite 10 km oder mehr

METAR: NZCH 171800Z AUTO 25007KT 210V290 9999 FEW039/// SCT050/// 06/03 Q1009 NOSIG

Zeit: 06:42 (18:42 UTC)

Prognose

Neuester Wetterbericht von vor 1 Stunde und 37 Minuten, um 17:05 UTC
Gültige Prognose vom 17 um 18 UTC bis 18 um 18 UTC
Wind 10 kt aus Südwest
Sichtweite 10 km oder mehr
Leicht bewölkt in der Höhe von 2000 ft
Aufgelockert bewölkt in der Höhe von 3000 ft
Übergehend zu
vom 18 um 08 UTC bis 18 um 10 UTC
Wind 5 kt aus Nordost

TAF: NZCH 171705Z 1718/1818 23010KT 9999 FEW020 SCT030 BECMG 1808/1810 04005KT

Wetterbeobachtungen und Prognosen von mehr als 4000 Flughäfen (METAR und TAF Bericht).

Die verfügbaren Stationen werden durch gelbe und rote Markierungen auf der Karte dargestellt.

Führen Sie die Maus auf sie, um den Namen der Station zu sehen.

Darauf klicken, um die Beobachtung von Wetterbeobachtungen und Prognosen zu sehen.

Um die Karte zu ändern : klicken Sie auf den grünen Tasten mit einem schwarzen Kreuz Zum Vergrößern, auf den grünen Button mit einem Gedankenstrich zu verkleinern, oder auf die grünen Pfeile für benachbarte Karten.


METAR-TAF: